Time;durP1;ratioP1;P1;durP2;ratioP2;P2;SDS_P1;SDS_P2;PMS_P1;PMS_P2;Temp;Humidity;BMP_temperature;BMP_pressure;BME280_temperature;BME280_humidity;BME280_pressure;Samples;Min_cycle;Max_cycle;Signal;HPM_P1;HPM_P2
2022/07/18 00:01:14;;;;;;;3.28;2.00;;;21.70;49.00;;;;;;5096202;28;20074;-72
2022/07/18 00:03:40;;;;;;;2.28;1.60;;;21.60;48.90;;;;;;5078774;28;20535;-73
2022/07/18 00:09:27;;;;;;;2.47;1.70;;;21.60;48.90;;;;;;5096388;28;20112;-73
2022/07/18 00:11:53;;;;;;;2.47;1.80;;;21.60;49.00;;;;;;5077904;28;20487;-73
2022/07/18 00:14:21;;;;;;;2.28;1.65;;;21.60;49.00;;;;;;5077493;28;20024;-73
2022/07/18 00:16:47;;;;;;;2.47;2.05;;;21.60;49.00;;;;;;5096004;28;20435;-75
2022/07/18 00:19:14;;;;;;;2.97;1.80;;;21.50;49.10;;;;;;5093994;28;20491;-72
2022/07/18 00:21:42;;;;;;;4.38;2.35;;;21.50;49.10;;;;;;5094382;28;20119;-73
2022/07/18 00:24:08;;;;;;;3.10;1.88;;;21.40;49.20;;;;;;5095582;28;20444;-73
2022/07/18 00:26:33;;;;;;;2.72;1.90;;;21.40;49.40;;;;;;5077450;28;20107;-72
2022/07/18 00:28:59;;;;;;;2.92;2.00;;;21.30;49.50;;;;;;5095679;28;20027;-73
2022/07/18 00:31:25;;;;;;;2.30;2.03;;;21.30;49.60;;;;;;5077083;28;20451;-73
2022/07/18 00:33:50;;;;;;;2.42;1.85;;;21.30;49.70;;;;;;5095238;28;20399;-73
2022/07/18 00:39:38;;;;;;;4.22;2.05;;;21.20;49.80;;;;;;5095639;28;20039;-73
2022/07/18 00:42:03;;;;;;;2.50;1.95;;;21.20;49.80;;;;;;5077064;28;20013;-73
2022/07/18 00:44:29;;;;;;;2.30;1.90;;;21.10;49.80;;;;;;5076681;28;20027;-73
2022/07/18 00:46:58;;;;;;;3.97;1.80;;;21.10;49.80;;;;;;5076501;28;20475;-73
2022/07/18 00:49:24;;;;;;;2.58;1.88;;;21.10;49.80;;;;;;5076637;28;20393;-73
2022/07/18 00:51:49;;;;;;;3.63;2.08;;;21.10;49.90;;;;;;5094694;28;20100;-73
2022/07/18 00:54:16;;;;;;;2.97;2.00;;;21.10;49.90;;;;;;5094816;28;20487;-73
2022/07/18 00:56:43;;;;;;;2.05;1.65;;;21.00;49.90;;;;;;5094657;28;20463;-73
2022/07/18 00:59:10;;;;;;;2.88;1.90;;;21.00;49.90;;;;;;5076629;28;20020;-73
2022/07/18 01:01:42;;;;;;;2.38;1.90;;;21.00;50.00;;;;;;5078228;28;20388;-79
2022/07/18 01:04:09;;;;;;;3.75;1.90;;;20.90;49.90;;;;;;5078163;28;20036;-79
2022/07/18 01:06:35;;;;;;;2.22;1.73;;;20.90;49.90;;;;;;5095594;28;20020;-79
2022/07/18 01:09:01;;;;;;;3.55;1.85;;;21.00;50.00;;;;;;5095241;28;20031;-79
2022/07/18 01:11:26;;;;;;;1.83;1.60;;;20.90;49.90;;;;;;5096460;28;20035;-79
2022/07/18 01:13:53;;;;;;;3.38;2.05;;;20.90;49.90;;;;;;5095566;28;20023;-79
2022/07/18 01:16:19;;;;;;;2.40;1.70;;;20.90;49.80;;;;;;5096566;28;20537;-78
2022/07/18 01:18:49;;;;;;;2.53;1.77;;;20.80;49.80;;;;;;5077359;28;20082;-79
2022/07/18 01:21:15;;;;;;;2.17;1.80;;;20.80;49.80;;;;;;5095723;28;20028;-79
2022/07/18 01:23:41;;;;;;;2.55;1.80;;;20.80;49.80;;;;;;5094858;28;20031;-79
2022/07/18 01:26:07;;;;;;;2.55;1.70;;;20.90;49.80;;;;;;5077505;28;20043;-79
2022/07/18 01:28:33;;;;;;;4.05;2.03;;;20.80;49.80;;;;;;5096608;28;20020;-79
2022/07/18 01:30:58;;;;;;;4.20;1.95;;;20.80;49.70;;;;;;5095867;28;20016;-79
2022/07/18 01:36:47;;;;;;;2.72;1.83;;;20.80;49.70;;;;;;5096422;28;20077;-79
2022/07/18 01:39:12;;;;;;;3.05;1.92;;;20.70;49.70;;;;;;5095795;28;20453;-78
2022/07/18 01:41:38;;;;;;;3.22;2.00;;;20.70;49.70;;;;;;5095896;28;20020;-79
2022/07/18 01:44:04;;;;;;;2.78;1.90;;;20.70;49.80;;;;;;5095619;28;20110;-79
2022/07/18 01:46:29;;;;;;;2.80;1.73;;;20.70;49.70;;;;;;5095423;28;20073;-79
2022/07/18 01:48:56;;;;;;;3.45;2.08;;;20.70;49.70;;;;;;5077436;28;20028;-78
2022/07/18 01:51:21;;;;;;;3.15;2.10;;;20.70;49.70;;;;;;5094216;28;20020;-79
2022/07/18 01:53:57;;;;;;;3.20;2.10;;;20.70;49.70;;;;;;5076298;28;20017;-78
2022/07/18 01:56:23;;;;;;;3.83;2.10;;;20.60;49.70;;;;;;5094973;28;20493;-78
2022/07/18 01:58:49;;;;;;;2.10;1.73;;;20.60;49.70;;;;;;5093523;28;20024;-78
2022/07/18 02:01:15;;;;;;;3.08;2.40;;;20.60;49.80;;;;;;5077298;28;20012;-79
2022/07/18 02:03:40;;;;;;;4.32;1.98;;;20.60;49.80;;;;;;5095089;28;20441;-78
2022/07/18 02:06:06;;;;;;;3.22;2.00;;;20.60;49.80;;;;;;5076982;28;20101;-78
2022/07/18 02:08:31;;;;;;;2.58;2.17;;;20.50;49.90;;;;;;5095490;28;20016;-79
2022/07/18 02:10:57;;;;;;;4.30;2.17;;;20.50;49.90;;;;;;5077396;28;20038;-79
2022/07/18 02:13:23;;;;;;;2.90;2.00;;;20.50;50.00;;;;;;5076808;28;20012;-79
2022/07/18 02:15:48;;;;;;;4.55;2.00;;;20.40;50.00;;;;;;5095358;28;20023;-79
2022/07/18 02:18:14;;;;;;;2.95;2.10;;;20.40;50.10;;;;;;5076448;28;20055;-78
2022/07/18 02:20:40;;;;;;;3.85;2.28;;;20.40;50.10;;;;;;5093936;28;20040;-77
2022/07/18 02:23:07;;;;;;;3.92;2.17;;;20.40;50.20;;;;;;5076992;28;20027;-78
2022/07/18 02:25:33;;;;;;;2.88;2.00;;;20.40;50.20;;;;;;5094088;28;20050;-78
2022/07/18 02:27:59;;;;;;;2.03;1.80;;;20.40;50.30;;;;;;5093926;28;20773;-78
2022/07/18 02:30:25;;;;;;;2.95;1.90;;;20.30;50.30;;;;;;5095252;28;20078;-78
2022/07/18 02:32:50;;;;;;;3.42;2.20;;;20.40;50.40;;;;;;5076966;28;20031;-78
2022/07/18 02:35:16;;;;;;;2.58;2.08;;;20.30;50.40;;;;;;5094332;28;20038;-78
2022/07/18 02:37:43;;;;;;;3.08;2.00;;;20.30;50.60;;;;;;5076376;28;20035;-78
2022/07/18 02:40:11;;;;;;;3.58;2.25;;;20.30;50.70;;;;;;5077098;28;20016;-78
2022/07/18 02:42:37;;;;;;;4.93;2.40;;;20.20;50.80;;;;;;5093707;28;20048;-78
2022/07/18 02:45:04;;;;;;;4.53;2.10;;;20.20;50.90;;;;;;5094145;28;20094;-79
2022/07/18 02:47:29;;;;;;;5.45;2.30;;;20.10;51.10;;;;;;5094101;28;20035;-78
2022/07/18 02:49:55;;;;;;;4.10;2.10;;;20.00;51.20;;;;;;5076827;28;20020;-79
2022/07/18 02:52:21;;;;;;;4.82;2.20;;;20.00;51.20;;;;;;5094336;28;20036;-78
2022/07/18 02:54:46;;;;;;;2.78;2.00;;;20.00;51.30;;;;;;5094845;28;20103;-78
2022/07/18 02:57:12;;;;;;;3.40;2.17;;;19.90;51.40;;;;;;5094986;28;20110;-78
2022/07/18 02:59:38;;;;;;;4.22;2.05;;;19.90;51.50;;;;;;5076880;28;20023;-78
2022/07/18 03:02:05;;;;;;;3.95;2.00;;;19.90;51.60;;;;;;5076670;28;20016;-79
2022/07/18 03:04:31;;;;;;;4.25;1.90;;;19.90;51.80;;;;;;5095235;28;20028;-78
2022/07/18 03:06:57;;;;;;;3.42;2.35;;;19.80;51.70;;;;;;5076331;28;20040;-78
2022/07/18 03:09:26;;;;;;;3.90;2.25;;;19.80;51.80;;;;;;5076456;28;20062;-78
2022/07/18 03:11:53;;;;;;;3.33;2.20;;;19.80;52.00;;;;;;5076233;28;20024;-78
2022/07/18 03:14:18;;;;;;;3.85;2.20;;;19.70;52.10;;;;;;5093912;28;20028;-78
2022/07/18 03:16:44;;;;;;;2.65;1.95;;;19.70;52.20;;;;;;5076402;28;20032;-78
2022/07/18 03:19:09;;;;;;;4.00;1.95;;;19.60;52.40;;;;;;5094635;28;20129;-78
2022/07/18 03:21:35;;;;;;;4.20;2.10;;;19.60;52.50;;;;;;5076183;28;20021;-78
2022/07/18 03:24:01;;;;;;;2.70;2.10;;;19.60;52.60;;;;;;5093935;28;20059;-78
2022/07/18 03:26:27;;;;;;;2.35;2.00;;;19.60;52.70;;;;;;5075702;28;20016;-78
2022/07/18 03:28:52;;;;;;;4.25;2.70;;;19.50;52.80;;;;;;5076327;28;20501;-78
2022/07/18 03:31:18;;;;;;;2.53;2.10;;;19.60;52.80;;;;;;5079536;28;20024;-78
2022/07/18 03:33:43;;;;;;;2.92;2.20;;;19.60;52.70;;;;;;5080443;28;20012;-77
2022/07/18 03:36:10;;;;;;;3.08;1.90;;;19.60;52.80;;;;;;5080279;28;20048;-78
2022/07/18 03:38:42;;;;;;;3.03;2.20;;;19.60;52.80;;;;;;5080438;28;20022;-78
2022/07/18 03:41:09;;;;;;;3.78;2.35;;;19.60;52.90;;;;;;5080111;28;20096;-78
2022/07/18 03:43:34;;;;;;;3.85;2.00;;;19.60;52.90;;;;;;5096927;28;20141;-78
2022/07/18 03:46:00;;;;;;;5.72;2.10;;;19.60;52.90;;;;;;5080542;28;20070;-77
2022/07/18 03:48:25;;;;;;;3.83;2.22;;;19.50;53.00;;;;;;5098374;28;20069;-78
2022/07/18 03:50:51;;;;;;;3.30;2.20;;;19.50;53.10;;;;;;5079748;28;20035;-78
2022/07/18 03:53:17;;;;;;;2.75;2.00;;;19.50;53.20;;;;;;5097186;28;20025;-78
2022/07/18 03:55:42;;;;;;;4.18;2.10;;;19.50;53.30;;;;;;5097351;28;20494;-77
2022/07/18 03:58:08;;;;;;;3.03;2.00;;;19.40;53.30;;;;;;5097784;28;20020;-78
2022/07/18 04:00:34;;;;;;;3.35;2.22;;;19.40;53.50;;;;;;5079764;28;20054;-78
2022/07/18 04:03:00;;;;;;;2.65;1.90;;;19.30;53.50;;;;;;5098142;28;20491;-78
2022/07/18 04:05:25;;;;;;;4.68;2.10;;;19.30;53.60;;;;;;5080299;28;20124;-78
2022/07/18 04:07:51;;;;;;;5.13;2.25;;;19.30;53.70;;;;;;5079620;28;20031;-79
2022/07/18 04:10:17;;;;;;;4.53;2.45;;;19.30;53.70;;;;;;5079429;28;20066;-78
2022/07/18 04:12:47;;;;;;;3.38;1.98;;;19.30;53.70;;;;;;5079338;28;20016;-77
2022/07/18 04:15:13;;;;;;;4.13;2.55;;;19.30;53.80;;;;;;5097681;28;20028;-79
2022/07/18 04:17:38;;;;;;;3.88;2.17;;;19.30;53.80;;;;;;5079417;28;20096;-78
2022/07/18 04:20:05;;;;;;;3.22;2.08;;;19.30;53.80;;;;;;5079383;28;20012;-78
2022/07/18 04:22:30;;;;;;;3.80;2.20;;;19.30;53.70;;;;;;5096831;28;20024;-78
2022/07/18 04:24:56;;;;;;;3.33;1.88;;;19.40;53.80;;;;;;5079684;28;20376;-78
2022/07/18 04:27:21;;;;;;;3.83;2.20;;;19.40;53.80;;;;;;5097661;28;20032;-77
2022/07/18 04:29:47;;;;;;;3.28;2.05;;;19.40;53.70;;;;;;5097420;28;20031;-78
2022/07/18 04:32:12;;;;;;;3.33;2.20;;;19.40;53.80;;;;;;5097222;28;20034;-79
2022/07/18 04:34:38;;;;;;;3.00;2.20;;;19.40;53.90;;;;;;5097134;28;20107;-78
2022/07/18 04:37:04;;;;;;;4.43;2.17;;;19.40;53.90;;;;;;5079148;28;20050;-78
2022/07/18 04:39:29;;;;;;;4.38;2.38;;;19.40;53.90;;;;;;5097825;28;20012;-79
2022/07/18 04:41:56;;;;;;;3.42;2.30;;;19.50;54.00;;;;;;5079074;28;20099;-78
2022/07/18 04:44:21;;;;;;;4.18;2.00;;;19.50;53.90;;;;;;5079257;28;20024;-79
2022/07/18 04:46:47;;;;;;;5.35;2.20;;;19.50;53.90;;;;;;5078582;28;20024;-78
2022/07/18 04:49:12;;;;;;;2.58;1.88;;;19.50;53.80;;;;;;5097375;28;20146;-78
2022/07/18 04:51:38;;;;;;;3.25;2.08;;;19.60;53.80;;;;;;5097173;28;20021;-78
2022/07/18 04:54:05;;;;;;;4.25;2.08;;;19.60;53.80;;;;;;5097220;28;20024;-78
2022/07/18 04:56:30;;;;;;;3.88;2.22;;;19.60;53.80;;;;;;5079991;28;20055;-78
2022/07/18 04:58:56;;;;;;;3.30;2.20;;;19.60;53.70;;;;;;5081751;28;20149;-79
2022/07/18 05:01:21;;;;;;;3.58;2.00;;;19.70;53.60;;;;;;5099593;28;20024;-80
2022/07/18 05:03:47;;;;;;;2.75;2.13;;;19.70;53.50;;;;;;5098654;28;20024;-79
2022/07/18 05:06:13;;;;;;;4.05;2.15;;;19.80;53.50;;;;;;5100402;28;20442;-78
2022/07/18 05:08:38;;;;;;;3.40;2.30;;;19.80;53.50;;;;;;5104454;28;20021;-79
2022/07/18 05:11:08;;;;;;;3.13;2.10;;;19.80;53.40;;;;;;5084819;28;20024;-78
2022/07/18 05:13:33;;;;;;;4.05;2.35;;;19.90;53.40;;;;;;5085315;28;20035;-79
2022/07/18 05:15:59;;;;;;;2.53;1.95;;;19.90;53.30;;;;;;5083635;28;20020;-78
2022/07/18 05:18:27;;;;;;;3.65;2.13;;;19.90;53.30;;;;;;5097899;28;20353;-78
2022/07/18 05:20:53;;;;;;;3.40;2.25;;;19.90;53.30;;;;;;5078823;28;20501;-79
2022/07/18 05:23:19;;;;;;;5.03;2.28;;;19.90;53.30;;;;;;5097383;28;20024;-78
2022/07/18 05:25:44;;;;;;;3.50;2.42;;;19.90;53.30;;;;;;5079357;28;20012;-77
2022/07/18 05:28:10;;;;;;;2.88;2.13;;;20.00;53.50;;;;;;5082029;28;20383;-78
2022/07/18 05:30:36;;;;;;;5.35;2.28;;;20.00;53.50;;;;;;5097557;28;20031;-78
2022/07/18 05:36:24;;;;;;;3.13;2.42;;;20.10;53.50;;;;;;5103220;28;20042;-78
2022/07/18 05:38:49;;;;;;;2.85;1.73;;;20.10;53.50;;;;;;5077969;28;20024;-78
2022/07/18 05:41:15;;;;;;;4.78;2.10;;;20.10;53.40;;;;;;5078468;28;20027;-78
2022/07/18 05:43:40;;;;;;;4.45;2.13;;;20.10;53.40;;;;;;5095581;28;20024;-79
2022/07/18 05:46:07;;;;;;;4.32;2.05;;;20.10;53.50;;;;;;5095931;28;20032;-77
2022/07/18 05:48:32;;;;;;;3.83;2.40;;;20.20;53.60;;;;;;5077473;28;20463;-78
2022/07/18 05:50:58;;;;;;;3.38;1.90;;;20.20;53.60;;;;;;5077593;28;20028;-78
2022/07/18 05:53:23;;;;;;;3.67;2.10;;;20.20;53.70;;;;;;5076751;28;20114;-78
2022/07/18 05:55:49;;;;;;;4.32;2.38;;;20.20;53.80;;;;;;5096405;28;20506;-80
2022/07/18 05:58:15;;;;;;;4.00;2.70;;;20.20;53.80;;;;;;5075479;28;20028;-79
2022/07/18 06:00:40;;;;;;;3.70;2.30;;;20.20;53.90;;;;;;5096933;28;20024;-79
2022/07/18 06:03:06;;;;;;;4.60;2.50;;;20.20;53.90;;;;;;5078842;28;20016;-79
2022/07/18 06:05:32;;;;;;;4.22;2.53;;;20.20;54.00;;;;;;5079555;28;20035;-78
2022/07/18 06:07:57;;;;;;;6.47;2.35;;;20.20;54.00;;;;;;5078992;28;20538;-78
2022/07/18 06:10:25;;;;;;;4.57;2.30;;;20.20;54.10;;;;;;5078312;28;20089;-79
2022/07/18 06:16:13;;;;;;;3.45;2.33;;;20.30;54.30;;;;;;5097211;28;20402;-78
2022/07/18 06:18:38;;;;;;;3.88;2.80;;;20.30;54.10;;;;;;5077990;28;20036;-77
2022/07/18 06:21:04;;;;;;;4.55;2.58;;;20.30;54.00;;;;;;5096942;28;20083;-78
2022/07/18 06:23:30;;;;;;;3.35;2.25;;;20.40;54.10;;;;;;5095059;28;20028;-77
2022/07/18 06:25:57;;;;;;;4.72;2.30;;;20.40;54.10;;;;;;5079448;28;20020;-75
2022/07/18 06:28:23;;;;;;;3.75;2.33;;;20.40;54.10;;;;;;5097430;28;20024;-77
2022/07/18 06:30:48;;;;;;;3.35;2.20;;;20.50;54.10;;;;;;5100044;28;20024;-77
2022/07/18 06:33:14;;;;;;;3.63;2.40;;;20.50;54.10;;;;;;5101085;28;20095;-79
2022/07/18 06:39:08;;;;;;;4.03;2.20;;;20.60;54.10;;;;;;5099968;28;20035;-83
2022/07/18 06:41:34;;;;;;;5.28;2.45;;;20.60;53.90;;;;;;5099673;28;20008;-81
2022/07/18 06:47:22;;;;;;;5.63;2.15;;;20.70;53.90;;;;;;5101176;28;20023;-80
2022/07/18 06:49:47;;;;;;;2.53;2.00;;;20.80;53.70;;;;;;5083358;28;20024;-81
2022/07/18 06:52:15;;;;;;;4.35;2.50;;;20.80;53.50;;;;;;5084712;28;20341;-80
2022/07/18 06:54:41;;;;;;;3.70;1.88;;;20.90;53.50;;;;;;5100900;28;20031;-78
2022/07/18 06:57:07;;;;;;;4.22;2.00;;;20.90;53.50;;;;;;5084099;28;20016;-77
2022/07/18 06:59:33;;;;;;;4.22;2.10;;;21.00;53.30;;;;;;5087195;28;20485;-78
2022/07/18 07:01:59;;;;;;;2.88;1.83;;;21.10;53.30;;;;;;5085106;28;20359;-77
2022/07/18 07:04:25;;;;;;;3.38;1.83;;;21.20;53.20;;;;;;5081566;28;20035;-77
2022/07/18 07:06:51;;;;;;;4.55;1.70;;;21.20;53.00;;;;;;5086783;28;20030;-77
2022/07/18 07:09:16;;;;;;;8.20;2.15;;;21.30;53.00;;;;;;5103446;28;20044;-78
2022/07/18 07:11:42;;;;;;;2.90;1.73;;;21.30;52.90;;;;;;5088019;28;20123;-78
2022/07/18 07:14:08;;;;;;;3.42;1.80;;;21.40;52.90;;;;;;5085223;28;20025;-79
2022/07/18 07:16:33;;;;;;;4.40;1.75;;;21.40;52.90;;;;;;5085120;28;20016;-76
2022/07/18 07:18:59;;;;;;;3.63;2.20;;;21.50;52.90;;;;;;5085193;28;20032;-79
2022/07/18 07:21:26;;;;;;;3.13;2.15;;;21.60;52.90;;;;;;5103274;28;20024;-77
2022/07/18 07:23:52;;;;;;;2.85;1.77;;;21.60;52.90;;;;;;5086225;28;20020;-77
2022/07/18 07:26:18;;;;;;;4.05;2.10;;;21.70;52.90;;;;;;5084567;28;20108;-76
2022/07/18 07:28:44;;;;;;;6.13;2.15;;;21.80;52.90;;;;;;5090627;28;20044;-78
2022/07/18 07:31:09;;;;;;;5.68;2.00;;;21.80;52.80;;;;;;5088009;28;20027;-78
2022/07/18 07:33:36;;;;;;;4.15;1.80;;;21.90;52.80;;;;;;5089962;28;20024;-78
2022/07/18 07:36:03;;;;;;;4.40;1.92;;;21.90;52.80;;;;;;5085819;28;20482;-79
2022/07/18 07:38:29;;;;;;;4.30;1.70;;;22.00;52.90;;;;;;5085237;28;20501;-78
2022/07/18 07:40:55;;;;;;;3.97;1.80;;;22.10;53.00;;;;;;5089844;28;20024;-78
2022/07/18 07:43:21;;;;;;;3.70;1.63;;;22.20;53.00;;;;;;5090856;28;20050;-78
2022/07/18 07:45:48;;;;;;;3.00;1.70;;;22.20;52.90;;;;;;5091669;28;20012;-80
2022/07/18 07:48:15;;;;;;;3.15;1.73;;;22.30;52.80;;;;;;5101827;28;20532;-81
2022/07/18 07:50:41;;;;;;;3.90;1.60;;;22.40;52.70;;;;;;5096476;28;20012;-82
2022/07/18 07:53:07;;;;;;;3.92;1.70;;;22.50;52.70;;;;;;5094300;28;20035;-81
2022/07/18 07:55:33;;;;;;;4.35;1.70;;;22.50;52.60;;;;;;5079364;28;20016;-81
2022/07/18 07:57:59;;;;;;;4.05;1.60;;;22.60;52.60;;;;;;5098053;28;20024;-82
2022/07/18 08:00:25;;;;;;;2.63;1.45;;;22.70;52.60;;;;;;5079292;28;20372;-80
2022/07/18 08:06:12;;;;;;;4.03;1.25;;;22.90;52.30;;;;;;5100164;28;20026;-81
2022/07/18 08:08:38;;;;;;;2.83;1.40;;;23.00;52.00;;;;;;5100434;28;20051;-82
2022/07/18 08:11:06;;;;;;;4.30;1.17;;;23.10;51.90;;;;;;5083348;28;20028;-83
2022/07/18 08:13:31;;;;;;;2.58;1.35;;;23.10;51.60;;;;;;5081317;28;20032;-83
2022/07/18 08:15:57;;;;;;;1.50;1.13;;;23.20;51.50;;;;;;5083007;28;20083;-82
2022/07/18 08:18:23;;;;;;;3.08;1.50;;;23.30;51.20;;;;;;5100777;28;20040;-83
2022/07/18 08:20:51;;;;;;;2.50;1.30;;;23.40;51.00;;;;;;5082833;28;20107;-84
2022/07/18 08:23:17;;;;;;;4.30;1.20;;;23.50;50.80;;;;;;5082133;28;20024;-82
2022/07/18 08:25:44;;;;;;;4.38;1.20;;;23.50;50.50;;;;;;5101837;28;20019;-82
2022/07/18 08:28:10;;;;;;;4.78;1.98;;;23.70;50.50;;;;;;5101577;28;20088;-82
2022/07/18 08:30:37;;;;;;;3.13;1.42;;;23.80;50.20;;;;;;5083093;28;20051;-79
2022/07/18 08:33:03;;;;;;;2.45;1.75;;;23.90;50.10;;;;;;5098086;28;20016;-81
2022/07/18 08:35:31;;;;;;;2.30;1.20;;;24.00;50.00;;;;;;5080420;28;20070;-82
2022/07/18 08:37:57;;;;;;;3.80;1.30;;;24.10;49.80;;;;;;5098048;28;20021;-80
2022/07/18 08:40:24;;;;;;;3.47;1.30;;;24.20;49.60;;;;;;5098509;28;20024;-82
2022/07/18 08:42:53;;;;;;;2.58;1.02;;;24.30;49.50;;;;;;5096662;28;20027;-81
2022/07/18 08:45:23;;;;;;;1.90;1.10;;;24.40;49.30;;;;;;5096630;28;20436;-80
2022/07/18 08:48:42;;;;;;;2.25;1.10;;;24.40;49.00;;;;;;5098744;28;20471;-82
2022/07/18 08:51:08;;;;;;;2.58;1.10;;;24.50;48.70;;;;;;5084561;28;20365;-81
2022/07/18 08:53:37;;;;;;;1.75;1.00;;;24.70;48.60;;;;;;5101579;28;20032;-81
2022/07/18 08:56:04;;;;;;;2.28;1.00;;;24.70;48.20;;;;;;5097284;28;20024;-82
2022/07/18 08:58:29;;;;;;;2.78;1.30;;;24.80;47.80;;;;;;5097202;28;20028;-81
2022/07/18 09:00:57;;;;;;;2.38;1.13;;;24.90;47.70;;;;;;5083530;28;20070;-81
2022/07/18 09:03:23;;;;;;;4.68;1.27;;;24.90;47.50;;;;;;5081251;28;20074;-82
2022/07/18 09:06:13;;;;;;;2.20;1.30;;;25.00;47.10;;;;;;5098010;28;20020;-72
2022/07/18 09:08:56;;;;;;;4.57;1.30;;;25.10;46.90;;;;;;5083498;28;20054;-81
2022/07/18 09:11:22;;;;;;;3.90;1.10;;;25.20;46.70;;;;;;5084848;28;20016;-81
2022/07/18 09:13:49;;;;;;;2.17;1.20;;;25.30;46.70;;;;;;5102078;28;20472;-83
2022/07/18 09:16:15;;;;;;;2.58;1.13;;;25.30;46.10;;;;;;5101280;28;20095;-82
2022/07/18 09:18:47;;;;;;;1.95;1.08;;;25.40;45.90;;;;;;5079507;28;20075;-81
2022/07/18 09:21:22;;;;;;;1.70;1.17;;;25.50;45.80;;;;;;5098920;28;20024;-82
2022/07/18 09:23:52;;;;;;;3.53;1.20;;;25.50;45.80;;;;;;5099291;28;20031;-82
2022/07/18 09:26:41;;;;;;;2.20;0.95;;;25.60;45.60;;;;;;5099080;28;20107;-83
2022/07/18 09:29:07;;;;;;;2.00;0.98;;;25.70;44.80;;;;;;5099201;28;20012;-82
2022/07/18 09:31:34;;;;;;;1.35;1.00;;;25.80;44.80;;;;;;5099780;28;20111;-81
2022/07/18 09:34:02;;;;;;;1.30;0.68;;;26.00;44.90;;;;;;5096707;28;20485;-80
2022/07/18 09:36:29;;;;;;;2.47;1.30;;;26.10;44.80;;;;;;5082803;28;20469;-83
2022/07/18 09:38:55;;;;;;;3.35;1.00;;;26.20;44.50;;;;;;5098167;28;20044;-84
2022/07/18 09:41:32;;;;;;;1.95;1.08;;;26.30;44.20;;;;;;5080639;28;20016;-85
2022/07/18 09:43:58;;;;;;;1.90;1.20;;;26.40;43.90;;;;;;5096195;28;20024;-83
2022/07/18 09:46:24;;;;;;;2.00;1.23;;;26.50;43.70;;;;;;5097250;28;20020;-84
2022/07/18 09:49:10;;;;;;;2.28;1.05;;;26.70;43.40;;;;;;5079075;28;20118;-79
2022/07/18 09:51:36;;;;;;;0.98;0.90;;;26.80;43.30;;;;;;5079289;28;20031;-82
2022/07/18 09:54:03;;;;;;;2.10;1.10;;;26.90;42.40;;;;;;5096338;28;20016;-81
2022/07/18 09:56:33;;;;;;;3.90;1.40;;;27.00;42.20;;;;;;5092576;28;20035;-75
2022/07/18 09:58:59;;;;;;;1.42;1.05;;;27.10;41.90;;;;;;5075766;28;20471;-78
2022/07/18 10:01:25;;;;;;;2.70;1.23;;;27.20;42.00;;;;;;5075776;28;20023;-78
2022/07/18 10:03:51;;;;;;;2.03;1.20;;;27.30;41.60;;;;;;5075762;28;20035;-78
2022/07/18 10:06:18;;;;;;;3.13;1.30;;;27.30;40.90;;;;;;5075748;28;20479;-77
2022/07/18 10:08:44;;;;;;;1.70;1.23;;;27.40;40.80;;;;;;5093980;28;20462;-78
2022/07/18 10:11:09;;;;;;;2.33;1.10;;;27.30;40.90;;;;;;5094071;28;20035;-75
2022/07/18 10:13:36;;;;;;;1.63;1.02;;;27.30;40.70;;;;;;5072169;28;20032;-75
2022/07/18 10:16:03;;;;;;;1.30;1.10;;;27.20;40.60;;;;;;5091920;28;20016;-73
2022/07/18 10:18:33;;;;;;;1.52;1.13;;;27.20;40.60;;;;;;5087273;28;20044;-74
2022/07/18 10:21:10;;;;;;;2.33;1.20;;;27.10;40.60;;;;;;5093134;28;20051;-75
2022/07/18 10:27:16;;;;;;;3.47;1.08;;;27.10;40.70;;;;;;5095639;28;20073;-82
2022/07/18 10:33:24;;;;;;;1.45;1.02;;;27.30;40.90;;;;;;5098411;28;20113;-82
2022/07/18 10:36:02;;;;;;;1.85;0.98;;;27.40;41.00;;;;;;5097203;28;20047;-81
2022/07/18 10:38:28;;;;;;;1.25;1.15;;;27.60;41.10;;;;;;5099437;28;20108;-81
2022/07/18 10:41:10;;;;;;;2.58;1.00;;;27.70;41.00;;;;;;5106702;28;20031;-82
2022/07/18 10:43:39;;;;;;;3.63;1.15;;;27.90;40.80;;;;;;5082884;28;20020;-81
2022/07/18 10:49:46;;;;;;;1.42;0.93;;;28.10;40.20;;;;;;5097139;28;20042;-81
2022/07/18 10:52:30;;;;;;;1.65;1.10;;;28.20;39.80;;;;;;5077957;28;20032;-82
2022/07/18 10:57:40;;;;;;;3.33;1.20;;;28.30;39.60;;;;;;5095015;28;20032;-81
2022/07/18 11:00:16;;;;;;;4.88;1.10;;;28.40;39.60;;;;;;5096358;28;20032;-82
2022/07/18 11:02:48;;;;;;;2.50;1.10;;;28.40;39.40;;;;;;5095855;28;20073;-82
2022/07/18 11:05:25;;;;;;;2.30;0.88;;;28.50;39.30;;;;;;5095650;28;20028;-81
2022/07/18 11:07:57;;;;;;;1.88;0.90;;;28.50;39.10;;;;;;5094959;28;20028;-80
2022/07/18 11:10:49;;;;;;;1.65;1.08;;;28.60;38.90;;;;;;5083309;28;20078;-78
2022/07/18 11:13:28;;;;;;;1.63;1.10;;;28.60;38.90;;;;;;5075094;28;20437;-77
2022/07/18 11:15:57;;;;;;;2.03;1.05;;;28.80;38.80;;;;;;5093020;28;20037;-77
2022/07/18 11:18:23;;;;;;;2.33;1.10;;;28.90;38.80;;;;;;5091851;28;20040;-77
2022/07/18 11:20:49;;;;;;;2.33;1.23;;;29.00;38.90;;;;;;5074847;28;20391;-76
2022/07/18 11:23:22;;;;;;;2.25;1.20;;;29.10;38.80;;;;;;5093428;28;20099;-76
2022/07/18 11:25:49;;;;;;;;;;;29.30;38.70;;;;;;5093834;28;20020;-77
2022/07/18 11:28:15;;;;;;;4.15;1.48;;;29.40;38.70;;;;;;5093247;28;20371;-76
2022/07/18 11:30:41;;;;;;;1.98;1.08;;;29.40;38.30;;;;;;5075349;28;20138;-77
2022/07/18 11:33:22;;;;;;;1.00;0.90;;;29.50;38.10;;;;;;5093480;28;20383;-77
2022/07/18 11:35:48;;;;;;;2.17;1.30;;;29.60;38.10;;;;;;5093566;28;20126;-77
2022/07/18 11:38:14;;;;;;;2.00;0.95;;;29.80;37.90;;;;;;5075561;28;20028;-75
2022/07/18 11:40:48;;;;;;;2.40;1.00;;;29.90;37.90;;;;;;5093634;28;20536;-76
2022/07/18 11:43:23;;;;;;;2.30;1.20;;;30.00;37.80;;;;;;5091862;28;20513;-76
2022/07/18 11:45:59;;;;;;;2.42;1.20;;;30.10;37.60;;;;;;5093815;28;20107;-76
2022/07/18 11:48:24;;;;;;;1.17;1.00;;;30.20;37.40;;;;;;5091909;28;20024;-76
2022/07/18 11:50:50;;;;;;;1.55;1.20;;;30.30;37.20;;;;;;5094040;28;20483;-77
2022/07/18 11:53:16;;;;;;;3.00;1.17;;;30.40;36.90;;;;;;5078790;28;20073;-76
2022/07/18 11:55:42;;;;;;;1.40;1.30;;;30.40;36.40;;;;;;5097269;28;20545;-75
2022/07/18 11:58:09;;;;;;;1.30;1.20;;;30.50;36.40;;;;;;5096850;28;20108;-76
2022/07/18 12:00:35;;;;;;;2.88;1.20;;;30.50;36.40;;;;;;5079037;28;20028;-76
2022/07/18 12:03:20;;;;;;;1.55;1.10;;;30.60;36.20;;;;;;5078382;28;20499;-76
2022/07/18 12:05:52;;;;;;;2.65;1.40;;;30.70;36.20;;;;;;5079205;28;20440;-77
2022/07/18 12:08:34;;;;;;;1.83;1.25;;;30.80;36.10;;;;;;5095818;28;20111;-76
2022/07/18 12:11:30;;;;;;;2.25;1.35;;;30.90;35.90;;;;;;5096467;28;20024;-76
2022/07/18 12:13:57;;;;;;;2.25;1.20;;;31.00;36.00;;;;;;5079467;28;20050;-76
2022/07/18 12:16:32;;;;;;;2.63;1.30;;;31.00;35.90;;;;;;5096450;28;20111;-76
2022/07/18 12:19:07;;;;;;;3.03;1.40;;;31.10;34.90;;;;;;5077719;28;20032;-76
2022/07/18 12:21:51;;;;;;;4.15;1.48;;;31.10;34.50;;;;;;5096466;28;20028;-76
2022/07/18 12:24:53;;;;;;;1.48;1.30;;;31.20;34.20;;;;;;5096256;28;20066;-76
2022/07/18 12:27:48;;;;;;;3.42;1.30;;;31.20;34.50;;;;;;5095691;28;20510;-76
2022/07/18 12:30:20;;;;;;;1.83;1.25;;;31.30;34.30;;;;;;5078776;28;20087;-76
2022/07/18 12:32:55;;;;;;;1.63;1.38;;;31.40;34.00;;;;;;5078152;28;20491;-76
2022/07/18 12:35:30;;;;;;;1.90;1.25;;;31.50;33.70;;;;;;5096440;28;20498;-77
2022/07/18 12:38:02;;;;;;;1.38;1.25;;;31.60;33.40;;;;;;5077896;28;20043;-75
2022/07/18 12:40:40;;;;;;;3.63;1.58;;;31.60;33.60;;;;;;5077941;28;20058;-75
2022/07/18 12:43:14;;;;;;;2.97;1.42;;;31.70;33.70;;;;;;5096176;28;20456;-76
2022/07/18 12:45:40;;;;;;;1.40;1.30;;;31.80;33.70;;;;;;5095943;28;20490;-75
2022/07/18 12:48:09;;;;;;;2.78;1.20;;;31.90;33.60;;;;;;5095856;28;20043;-75
2022/07/18 12:50:35;;;;;;;3.38;1.33;;;31.90;33.60;;;;;;5096314;28;20090;-75
2022/07/18 12:53:01;;;;;;;2.85;1.40;;;32.00;33.40;;;;;;5094778;28;20620;-75
2022/07/18 12:55:27;;;;;;;1.38;1.25;;;32.00;33.20;;;;;;5094326;28;20028;-74
2022/07/18 12:57:52;;;;;;;3.40;1.60;;;32.10;33.20;;;;;;5077440;28;20016;-75
2022/07/18 13:00:18;;;;;;;1.58;1.30;;;32.10;33.30;;;;;;5096004;28;20046;-75
2022/07/18 13:02:45;;;;;;;1.55;1.40;;;32.20;33.30;;;;;;5094603;28;20027;-76
2022/07/18 13:05:11;;;;;;;3.60;1.52;;;32.30;33.20;;;;;;5077612;28;20024;-76
2022/07/18 13:07:37;;;;;;;1.73;1.30;;;32.40;33.00;;;;;;5078355;28;20040;-76
2022/07/18 13:10:04;;;;;;;2.97;1.20;;;32.50;33.50;;;;;;5096178;28;20486;-75
2022/07/18 13:12:30;;;;;;;2.00;1.33;;;32.60;32.80;;;;;;5095411;28;20073;-75
2022/07/18 13:14:56;;;;;;;4.05;1.40;;;32.70;32.90;;;;;;5094317;28;20125;-75
2022/07/18 13:17:21;;;;;;;2.00;1.40;;;32.70;32.90;;;;;;5095943;28;20068;-75
2022/07/18 13:19:47;;;;;;;1.88;1.50;;;32.90;33.10;;;;;;5096564;28;20048;-76
2022/07/18 13:22:13;;;;;;;1.45;1.23;;;32.90;32.70;;;;;;5077949;28;20426;-75
2022/07/18 13:24:39;;;;;;;2.13;1.40;;;33.00;32.80;;;;;;5094507;28;20059;-76
2022/07/18 13:27:05;;;;;;;2.30;1.33;;;33.10;33.40;;;;;;5096766;28;20074;-76
2022/07/18 13:29:31;;;;;;;1.95;1.42;;;33.10;32.60;;;;;;5095740;28;20032;-76
2022/07/18 13:31:56;;;;;;;1.27;1.10;;;33.10;32.80;;;;;;5095571;28;20028;-76